createdAt,value
2022-12-10T00:00:23.729Z,410.00
2022-12-10T00:01:23.714Z,390.00
2022-12-10T00:02:23.754Z,412.00
2022-12-10T00:03:23.698Z,406.00
2022-12-10T00:04:23.729Z,408.00
2022-12-10T00:05:23.680Z,409.00
2022-12-10T00:06:23.648Z,409.00
2022-12-10T00:07:23.639Z,409.00
2022-12-10T00:08:23.671Z,409.00
2022-12-10T00:09:23.616Z,405.00
2022-12-10T00:10:23.588Z,405.00
2022-12-10T00:11:23.611Z,406.00
2022-12-10T00:12:23.567Z,413.00
2022-12-10T00:13:23.556Z,407.00
2022-12-10T00:14:23.557Z,409.00
2022-12-10T00:15:23.537Z,414.00
2022-12-10T00:16:23.535Z,414.00
2022-12-10T00:17:23.515Z,405.00
2022-12-10T00:18:23.487Z,413.00
2022-12-10T00:19:23.485Z,411.00
2022-12-10T00:20:23.480Z,412.00
2022-12-10T00:21:23.456Z,412.00
2022-12-10T00:22:23.438Z,413.00
2022-12-10T00:23:23.753Z,409.00
2022-12-10T00:24:23.409Z,410.00
2022-12-10T00:25:23.406Z,411.00
2022-12-10T00:26:23.397Z,406.00
2022-12-10T00:27:23.385Z,404.00
2022-12-10T00:28:23.358Z,405.00
2022-12-10T00:29:23.356Z,407.00
2022-12-10T00:30:23.335Z,406.00
2022-12-10T00:31:23.363Z,408.00
2022-12-10T00:32:23.325Z,410.00
2022-12-10T00:33:23.304Z,411.00
2022-12-10T00:34:23.287Z,410.00
2022-12-10T00:35:23.278Z,408.00
2022-12-10T00:36:23.254Z,407.00
2022-12-10T00:37:23.244Z,407.00
2022-12-10T00:38:23.244Z,407.00
2022-12-10T00:39:23.224Z,418.00
2022-12-10T00:40:23.205Z,405.00
2022-12-10T00:41:23.193Z,411.00
2022-12-10T00:42:23.174Z,404.00
2022-12-10T00:43:23.195Z,409.00
2022-12-10T00:44:23.184Z,409.00
2022-12-10T00:45:23.145Z,409.00
2022-12-10T00:46:23.177Z,408.00
2022-12-10T00:47:23.113Z,406.00
2022-12-10T00:48:23.104Z,408.00
2022-12-10T00:49:23.093Z,402.00
2022-12-10T00:50:23.094Z,407.00
2022-12-10T00:51:23.068Z,410.00
2022-12-10T00:52:23.052Z,415.00
2022-12-10T00:53:23.043Z,412.00
2022-12-10T00:54:23.023Z,414.00
2022-12-10T00:55:23.013Z,413.00
2022-12-10T00:56:23.012Z,409.00
2022-12-10T00:57:22.982Z,405.00
2022-12-10T00:58:22.971Z,401.00
2022-12-10T00:59:22.963Z,407.00
2022-12-10T01:00:22.941Z,413.00
2022-12-10T01:01:22.978Z,412.00
2022-12-10T01:02:22.970Z,409.00
2022-12-10T01:03:22.911Z,405.00
2022-12-10T01:04:22.895Z,406.00
2022-12-10T01:05:22.881Z,413.00
2022-12-10T01:06:22.869Z,409.00
2022-12-10T01:07:22.863Z,406.00
2022-12-10T01:08:22.917Z,406.00
2022-12-10T01:09:22.832Z,404.00
2022-12-10T01:10:22.813Z,406.00
2022-12-10T01:11:22.801Z,406.00
2022-12-10T01:12:22.781Z,410.00
2022-12-10T01:13:22.782Z,415.00
2022-12-10T01:14:22.800Z,415.00
2022-12-10T01:15:22.751Z,418.00
2022-12-10T01:16:22.802Z,422.00
2022-12-10T01:17:22.731Z,421.00
2022-12-10T01:18:22.701Z,418.00
2022-12-10T01:19:22.700Z,420.00
2022-12-10T01:20:22.701Z,420.00
2022-12-10T01:21:22.672Z,414.00
2022-12-10T01:22:22.650Z,415.00
2022-12-10T01:23:22.644Z,413.00
2022-12-10T01:24:22.627Z,416.00
2022-12-10T01:25:22.636Z,416.00
2022-12-10T01:26:22.621Z,414.00
2022-12-10T01:27:22.600Z,415.00
2022-12-10T01:28:22.572Z,413.00
2022-12-10T01:29:22.569Z,410.00
2022-12-10T01:30:22.551Z,414.00
2022-12-10T01:31:22.561Z,411.00
2022-12-10T01:32:22.539Z,411.00
2022-12-10T01:33:22.519Z,418.00
2022-12-10T01:34:22.500Z,411.00
2022-12-10T01:35:22.488Z,413.00
2022-12-10T01:36:22.477Z,410.00
2022-12-10T01:37:22.469Z,408.00
2022-12-10T01:38:22.473Z,411.00
2022-12-10T01:39:22.438Z,411.00
2022-12-10T01:40:22.419Z,412.00
2022-12-10T01:41:22.417Z,411.00
2022-12-10T01:42:22.398Z,411.00
2022-12-10T01:43:22.387Z,415.00
2022-12-10T01:44:22.387Z,412.00
2022-12-10T01:45:22.358Z,414.00
2022-12-10T01:46:22.347Z,416.00
2022-12-10T01:47:22.337Z,410.00
2022-12-10T01:48:22.317Z,413.00
2022-12-10T01:49:22.308Z,414.00
2022-12-10T01:50:22.305Z,415.00
2022-12-10T01:51:22.289Z,413.00
2022-12-10T01:52:22.260Z,412.00
2022-12-10T01:53:22.257Z,409.00
2022-12-10T01:54:22.246Z,409.00
2022-12-10T01:55:22.227Z,406.00
2022-12-10T01:56:22.227Z,407.00
2022-12-10T01:57:22.205Z,411.00
2022-12-10T01:58:22.183Z,408.00
2022-12-10T01:59:22.176Z,409.00
2022-12-10T02:00:22.156Z,409.00
2022-12-10T02:01:22.209Z,410.00
2022-12-10T02:02:22.186Z,407.00
2022-12-10T02:03:22.130Z,413.00
2022-12-10T02:04:22.109Z,408.00
2022-12-10T02:05:22.099Z,415.00
2022-12-10T02:06:22.086Z,409.00
2022-12-10T02:07:22.091Z,407.00
2022-12-10T02:08:22.144Z,414.00
2022-12-10T02:09:22.046Z,406.00
2022-12-10T02:10:22.035Z,409.00
2022-12-10T02:11:22.028Z,417.00
2022-12-10T02:12:22.005Z,420.00
2022-12-10T02:13:21.996Z,416.00
2022-12-10T02:14:22.007Z,416.00
2022-12-10T02:15:21.969Z,411.00
2022-12-10T02:16:22.020Z,409.00
2022-12-10T02:17:21.950Z,409.00
2022-12-10T02:18:21.926Z,405.00
2022-12-10T02:19:21.918Z,405.00
2022-12-10T02:20:21.915Z,404.00
2022-12-10T02:21:21.885Z,410.00
2022-12-10T02:22:21.874Z,411.00
2022-12-10T02:23:21.864Z,409.00
2022-12-10T02:24:21.845Z,412.00
2022-12-10T02:25:21.835Z,409.00
2022-12-10T02:26:21.833Z,409.00
2022-12-10T02:27:21.811Z,409.00
2022-12-10T02:28:21.793Z,411.00
2022-12-10T02:29:25.612Z,413.00
2022-12-10T02:30:21.765Z,416.00
2022-12-10T02:31:21.821Z,412.00
2022-12-10T02:32:21.778Z,405.00
2022-12-10T02:33:21.735Z,409.00
2022-12-10T02:34:21.713Z,413.00
2022-12-10T02:35:21.713Z,409.00
2022-12-10T02:36:21.756Z,409.00
2022-12-10T02:37:21.684Z,411.00
2022-12-10T02:38:21.696Z,412.00
2022-12-10T02:39:21.665Z,412.00
2022-12-10T02:40:21.632Z,408.00
2022-12-10T02:41:21.630Z,411.00
2022-12-10T02:42:21.602Z,411.00
2022-12-10T02:43:21.602Z,413.00
2022-12-10T02:44:21.612Z,410.00
2022-12-10T02:45:21.574Z,409.00
2022-12-10T02:46:21.562Z,410.00
2022-12-10T02:47:21.552Z,410.00
2022-12-10T02:48:21.532Z,408.00
2022-12-10T02:49:21.521Z,412.00
2022-12-10T02:50:21.523Z,413.00
2022-12-10T02:51:21.501Z,412.00
2022-12-10T02:52:21.471Z,411.00
2022-12-10T02:53:21.475Z,410.00
2022-12-10T02:54:21.452Z,412.00
2022-12-10T02:55:21.464Z,413.00
2022-12-10T02:56:21.454Z,416.00
2022-12-10T02:57:21.419Z,415.00
2022-12-10T02:58:21.403Z,416.00
2022-12-10T02:59:21.400Z,417.00
2022-12-10T03:00:21.380Z,414.00
2022-12-10T03:01:21.394Z,415.00
2022-12-10T03:02:21.369Z,413.00
2022-12-10T03:03:21.413Z,416.00
2022-12-10T03:04:21.321Z,415.00
2022-12-10T03:05:21.312Z,416.00
2022-12-10T03:06:21.292Z,415.00
2022-12-10T03:07:21.291Z,414.00
2022-12-10T03:08:21.367Z,413.00
2022-12-10T03:09:21.269Z,413.00
2022-12-10T03:10:21.240Z,411.00
2022-12-10T03:11:21.239Z,413.00
2022-12-10T03:12:21.219Z,413.00
2022-12-10T03:13:21.209Z,412.00
2022-12-10T03:14:21.209Z,410.00
2022-12-10T03:15:21.179Z,412.00
2022-12-10T03:16:21.252Z,413.00
2022-12-10T03:17:21.159Z,413.00
2022-12-10T03:18:21.139Z,413.00
2022-12-10T03:19:21.128Z,413.00
2022-12-10T03:20:21.128Z,411.00
2022-12-10T03:21:21.099Z,412.00
2022-12-10T03:22:21.088Z,416.00
2022-12-10T03:23:21.077Z,417.00
2022-12-10T03:24:21.058Z,416.00
2022-12-10T03:25:21.057Z,415.00
2022-12-10T03:26:21.047Z,416.00
2022-12-10T03:27:21.033Z,413.00
2022-12-10T03:28:21.019Z,418.00
2022-12-10T03:29:21.005Z,418.00
2022-12-10T03:30:20.986Z,418.00
2022-12-10T03:31:20.976Z,419.00
2022-12-10T03:32:20.978Z,420.00
2022-12-10T03:33:20.959Z,420.00
2022-12-10T03:34:20.935Z,420.00
2022-12-10T03:35:20.928Z,419.00
2022-12-10T03:36:20.908Z,419.00
2022-12-10T03:37:20.900Z,417.00
2022-12-10T03:38:20.903Z,417.00
2022-12-10T03:39:20.879Z,418.00
2022-12-10T03:40:20.855Z,419.00
2022-12-10T03:41:20.845Z,418.00
2022-12-10T03:42:20.825Z,417.00
2022-12-10T03:43:20.810Z,418.00
2022-12-10T03:44:20.817Z,421.00
2022-12-10T03:45:20.798Z,419.00
2022-12-10T03:46:20.810Z,416.00
2022-12-10T03:47:20.767Z,417.00
2022-12-10T03:48:20.763Z,417.00
2022-12-10T03:49:20.734Z,419.00
2022-12-10T03:50:20.756Z,420.00
2022-12-10T03:51:20.719Z,421.00
2022-12-10T03:52:20.695Z,421.00
2022-12-10T03:53:20.684Z,419.00
2022-12-10T03:54:20.678Z,419.00
2022-12-10T03:55:20.654Z,418.00
2022-12-10T03:56:20.664Z,419.00
2022-12-10T03:57:20.624Z,418.00
2022-12-10T03:58:20.786Z,418.00
2022-12-10T03:59:20.611Z,419.00
2022-12-10T04:00:20.595Z,420.00
2022-12-10T04:01:20.600Z,417.00
2022-12-10T04:02:20.595Z,419.00
2022-12-10T04:03:20.555Z,420.00
2022-12-10T04:04:20.580Z,418.00
2022-12-10T04:05:20.523Z,417.00
2022-12-10T04:06:20.522Z,412.00
2022-12-10T04:07:20.492Z,415.00
2022-12-10T04:08:20.567Z,418.00
2022-12-10T04:09:20.474Z,418.00
2022-12-10T04:10:20.462Z,418.00
2022-12-10T04:11:20.443Z,413.00
2022-12-10T04:12:20.442Z,415.00
2022-12-10T04:13:20.424Z,417.00
2022-12-10T04:14:20.431Z,415.00
2022-12-10T04:15:20.398Z,415.00
2022-12-10T04:16:20.382Z,414.00
2022-12-10T04:17:20.362Z,415.00
2022-12-10T04:18:20.352Z,416.00
2022-12-10T04:19:20.346Z,415.00
2022-12-10T04:20:20.360Z,415.00
2022-12-10T04:21:20.314Z,416.00
2022-12-10T04:22:20.303Z,415.00
2022-12-10T04:23:20.291Z,416.00
2022-12-10T04:24:20.281Z,419.00
2022-12-10T04:25:20.270Z,419.00
2022-12-10T04:26:20.271Z,420.00
2022-12-10T04:27:20.239Z,415.00
2022-12-10T04:28:20.228Z,417.00
2022-12-10T04:29:20.210Z,419.00
2022-12-10T04:30:20.207Z,419.00
2022-12-10T04:31:20.207Z,416.00
2022-12-10T04:32:20.201Z,415.00
2022-12-10T04:33:20.159Z,416.00
2022-12-10T04:34:20.150Z,417.00
2022-12-10T04:35:20.130Z,416.00
2022-12-10T04:36:20.122Z,417.00
2022-12-10T04:37:20.103Z,415.00
2022-12-10T04:38:20.130Z,413.00
2022-12-10T04:39:20.078Z,415.00
2022-12-10T04:40:20.068Z,413.00
2022-12-10T04:41:20.052Z,417.00
2022-12-10T04:42:20.050Z,419.00
2022-12-10T04:43:20.021Z,419.00
2022-12-10T04:44:20.038Z,419.00
2022-12-10T04:45:20.000Z,418.00
2022-12-10T04:46:20.052Z,421.00
2022-12-10T04:47:19.969Z,421.00
2022-12-10T04:48:19.968Z,423.00
2022-12-10T04:49:19.949Z,424.00
2022-12-10T04:50:19.958Z,423.00
2022-12-10T04:51:19.918Z,420.00
2022-12-10T04:52:19.916Z,420.00
2022-12-10T04:53:19.897Z,417.00
2022-12-10T04:54:19.887Z,417.00
2022-12-10T04:55:19.867Z,418.00
2022-12-10T04:56:19.878Z,421.00
2022-12-10T04:57:19.839Z,416.00
2022-12-10T04:58:19.837Z,417.00
2022-12-10T04:59:19.807Z,417.00
2022-12-10T05:00:19.809Z,415.00
2022-12-10T05:01:19.847Z,414.00
2022-12-10T05:02:19.808Z,416.00
2022-12-10T05:03:19.766Z,412.00
2022-12-10T05:04:19.808Z,414.00
2022-12-10T05:05:19.736Z,418.00
2022-12-10T05:06:19.734Z,416.00
2022-12-10T05:07:19.709Z,415.00
2022-12-10T05:08:19.753Z,417.00
2022-12-10T05:09:19.683Z,415.00
2022-12-10T05:10:19.680Z,415.00
2022-12-10T05:11:19.658Z,416.00
2022-12-10T05:12:19.656Z,415.00
2022-12-10T05:13:19.636Z,418.00
2022-12-10T05:14:19.645Z,416.00
2022-12-10T05:15:19.605Z,416.00
2022-12-10T05:16:19.594Z,416.00
2022-12-10T05:17:19.574Z,416.00
2022-12-10T05:18:19.578Z,416.00
2022-12-10T05:19:19.557Z,416.00
2022-12-10T05:20:19.564Z,419.00
2022-12-10T05:21:19.536Z,418.00
2022-12-10T05:22:19.519Z,417.00
2022-12-10T05:23:19.505Z,417.00
2022-12-10T05:24:19.498Z,416.00
2022-12-10T05:25:19.476Z,416.00
2022-12-10T05:26:19.482Z,415.00
2022-12-10T05:27:19.444Z,413.00
2022-12-10T05:28:19.444Z,413.00
2022-12-10T05:29:19.430Z,411.00
2022-12-10T05:30:19.415Z,411.00
2022-12-10T05:31:19.479Z,409.00
2022-12-10T05:32:19.405Z,410.00
2022-12-10T05:33:19.372Z,414.00
2022-12-10T05:34:19.362Z,414.00
2022-12-10T05:35:19.351Z,417.00
2022-12-10T05:36:19.332Z,416.00
2022-12-10T05:37:19.313Z,417.00
2022-12-10T05:38:19.324Z,418.00
2022-12-10T05:39:19.293Z,422.00
2022-12-10T05:40:19.282Z,420.00
2022-12-10T05:41:19.265Z,420.00
2022-12-10T05:42:19.260Z,418.00
2022-12-10T05:43:19.241Z,420.00
2022-12-10T05:44:19.260Z,416.00
2022-12-10T05:45:19.212Z,415.00
2022-12-10T05:46:19.256Z,412.00
2022-12-10T05:47:19.181Z,416.00
2022-12-10T05:48:19.182Z,415.00
2022-12-10T05:49:19.161Z,414.00
2022-12-10T05:50:19.171Z,416.00
2022-12-10T05:51:19.140Z,416.00
2022-12-10T05:52:19.131Z,415.00
2022-12-10T05:53:19.114Z,417.00
2022-12-10T05:54:19.101Z,416.00
2022-12-10T05:55:19.082Z,417.00
2022-12-10T05:56:19.101Z,417.00
2022-12-10T05:57:19.051Z,421.00
2022-12-10T05:58:19.054Z,418.00
2022-12-10T05:59:19.032Z,418.00
2022-12-10T06:00:19.030Z,421.00
2022-12-10T06:01:19.009Z,419.00
2022-12-10T06:02:19.032Z,418.00
2022-12-10T06:03:18.980Z,423.00
2022-12-10T06:04:19.031Z,419.00
2022-12-10T06:05:18.950Z,419.00
2022-12-10T06:06:18.960Z,419.00
2022-12-10T06:07:18.929Z,419.00
2022-12-10T06:08:18.982Z,419.00
2022-12-10T06:09:18.899Z,420.00
2022-12-10T06:10:18.900Z,421.00
2022-12-10T06:11:18.878Z,420.00
2022-12-10T06:12:18.878Z,420.00
2022-12-10T06:13:18.850Z,418.00
2022-12-10T06:14:18.858Z,417.00
2022-12-10T06:15:18.820Z,418.00
2022-12-10T06:16:18.852Z,418.00
2022-12-10T06:17:18.798Z,418.00
2022-12-10T06:18:18.795Z,417.00
2022-12-10T06:19:18.778Z,417.00
2022-12-10T06:20:18.792Z,417.00
2022-12-10T06:21:18.738Z,418.00
2022-12-10T06:22:18.737Z,417.00
2022-12-10T06:23:18.718Z,417.00
2022-12-10T06:24:18.709Z,416.00
2022-12-10T06:25:18.687Z,415.00
2022-12-10T06:26:18.707Z,417.00
2022-12-10T06:27:18.668Z,419.00
2022-12-10T06:28:18.657Z,417.00
2022-12-10T06:29:18.647Z,418.00
2022-12-10T06:30:18.636Z,419.00
2022-12-10T06:31:18.668Z,420.00
2022-12-10T06:32:18.628Z,419.00
2022-12-10T06:33:18.588Z,421.00
2022-12-10T06:34:18.592Z,420.00
2022-12-10T06:35:18.566Z,420.00
2022-12-10T06:36:18.561Z,419.00
2022-12-10T06:37:18.536Z,418.00
2022-12-10T06:38:19.577Z,419.00
2022-12-10T06:39:18.508Z,419.00
2022-12-10T06:40:18.507Z,419.00
2022-12-10T06:41:18.492Z,421.00
2022-12-10T06:42:18.476Z,423.00
2022-12-10T06:43:18.457Z,421.00
2022-12-10T06:44:18.476Z,418.00
2022-12-10T06:45:18.433Z,423.00
2022-12-10T06:46:18.476Z,423.00
2022-12-10T06:47:18.410Z,421.00
2022-12-10T06:48:18.405Z,424.00
2022-12-10T06:49:18.377Z,423.00
2022-12-10T06:50:18.415Z,422.00
2022-12-10T06:51:18.380Z,424.00
2022-12-10T06:52:18.358Z,426.00
2022-12-10T06:53:18.337Z,425.00
2022-12-10T06:54:18.324Z,424.00
2022-12-10T06:55:18.304Z,425.00
2022-12-10T06:56:18.325Z,424.00
2022-12-10T06:57:18.284Z,422.00
2022-12-10T06:58:18.290Z,423.00
2022-12-10T06:59:18.254Z,422.00
2022-12-10T07:00:21.882Z,422.00
2022-12-10T07:01:18.327Z,423.00
2022-12-10T07:02:18.304Z,424.00
2022-12-10T07:03:18.202Z,427.00
2022-12-10T07:04:18.195Z,424.00
2022-12-10T07:05:18.173Z,422.00
2022-12-10T07:06:18.165Z,424.00
2022-12-10T07:07:18.150Z,422.00
2022-12-10T07:08:18.198Z,422.00
2022-12-10T07:09:18.128Z,422.00
2022-12-10T07:10:18.113Z,422.00
2022-12-10T07:11:18.094Z,422.00
2022-12-10T07:12:18.093Z,424.00
2022-12-10T07:13:18.071Z,424.00
2022-12-10T07:14:18.082Z,422.00
2022-12-10T07:15:18.043Z,423.00
2022-12-10T07:16:18.114Z,423.00
2022-12-10T07:17:18.018Z,417.00
2022-12-10T07:18:18.013Z,419.00
2022-12-10T07:19:17.992Z,418.00
2022-12-10T07:20:18.004Z,421.00
2022-12-10T07:21:17.963Z,422.00
2022-12-10T07:22:17.953Z,424.00
2022-12-10T07:23:17.942Z,422.00
2022-12-10T07:24:18.014Z,422.00
2022-12-10T07:25:17.911Z,423.00
2022-12-10T07:26:17.953Z,425.00
2022-12-10T07:27:17.889Z,424.00
2022-12-10T07:28:17.883Z,422.00
2022-12-10T07:29:17.861Z,421.00
2022-12-10T07:30:17.871Z,423.00
2022-12-10T07:31:17.886Z,424.00
2022-12-10T07:32:17.872Z,424.00
2022-12-10T07:33:17.811Z,424.00
2022-12-10T07:34:17.817Z,423.00
2022-12-10T07:35:17.792Z,423.00
2022-12-10T07:36:17.783Z,424.00
2022-12-10T07:37:17.758Z,419.00
2022-12-10T07:38:17.789Z,425.00
2022-12-10T07:39:17.730Z,421.00
2022-12-10T07:40:17.730Z,422.00
2022-12-10T07:41:17.722Z,420.00
2022-12-10T07:42:17.698Z,423.00
2022-12-10T07:43:17.679Z,422.00
2022-12-10T07:44:17.692Z,421.00
2022-12-10T07:45:17.659Z,421.00
2022-12-10T07:46:17.695Z,422.00
2022-12-10T07:47:17.632Z,416.00
2022-12-10T07:48:17.619Z,418.00
2022-12-10T07:49:17.605Z,418.00
2022-12-10T07:50:17.631Z,419.00
2022-12-10T07:51:17.581Z,417.00
2022-12-10T07:52:17.570Z,415.00
2022-12-10T07:53:17.550Z,415.00
2022-12-10T07:54:17.539Z,415.00
2022-12-10T07:55:17.534Z,417.00
2022-12-10T07:56:17.539Z,417.00
2022-12-10T07:57:17.500Z,414.00
2022-12-10T07:58:17.495Z,416.00
2022-12-10T07:59:17.470Z,411.00
2022-12-10T08:00:17.473Z,411.00
2022-12-10T08:01:17.554Z,412.00
2022-12-10T08:02:17.479Z,410.00
2022-12-10T08:03:17.485Z,411.00
2022-12-10T08:04:17.408Z,414.00
2022-12-10T08:05:17.396Z,412.00
2022-12-10T08:06:17.387Z,412.00
2022-12-10T08:07:17.375Z,416.00
2022-12-10T08:08:17.440Z,409.00
2022-12-10T08:09:17.337Z,407.00
2022-12-10T08:10:17.335Z,406.00
2022-12-10T08:11:17.318Z,406.00
2022-12-10T08:12:17.317Z,408.00
2022-12-10T08:13:17.287Z,408.00
2022-12-10T08:14:17.306Z,414.00
2022-12-10T08:15:17.288Z,415.00
2022-12-10T08:16:17.316Z,413.00
2022-12-10T08:17:17.243Z,411.00
2022-12-10T08:18:17.245Z,410.00
2022-12-10T08:19:22.023Z,410.00
2022-12-10T08:20:18.216Z,408.00
2022-12-10T08:21:17.206Z,413.00
2022-12-10T08:22:17.177Z,410.00
2022-12-10T08:23:17.166Z,411.00
2022-12-10T08:24:17.155Z,411.00
2022-12-10T08:25:17.157Z,411.00
2022-12-10T08:26:17.157Z,412.00
2022-12-10T08:27:17.115Z,413.00
2022-12-10T08:28:17.096Z,410.00
2022-12-10T08:29:17.095Z,408.00
2022-12-10T08:30:17.065Z,411.00
2022-12-10T08:31:17.120Z,410.00
2022-12-10T08:32:17.077Z,410.00
2022-12-10T08:33:17.035Z,409.00
2022-12-10T08:34:17.021Z,410.00
2022-12-10T08:35:17.014Z,412.00
2022-12-10T08:36:16.996Z,415.00
2022-12-10T08:37:16.985Z,422.00
2022-12-10T08:38:16.991Z,417.00
2022-12-10T08:39:16.964Z,416.00
2022-12-10T08:40:16.944Z,415.00
2022-12-10T08:41:16.935Z,413.00
2022-12-10T08:42:16.914Z,412.00
2022-12-10T08:43:16.903Z,413.00
2022-12-10T08:44:16.905Z,411.00
2022-12-10T08:45:16.883Z,411.00
2022-12-10T08:46:16.923Z,414.00
2022-12-10T08:47:16.854Z,411.00
2022-12-10T08:48:16.835Z,412.00
2022-12-10T08:49:16.833Z,411.00
2022-12-10T08:50:16.828Z,407.00
2022-12-10T08:51:16.827Z,414.00
2022-12-10T08:52:16.786Z,415.00
2022-12-10T08:53:16.782Z,413.00
2022-12-10T08:54:16.755Z,415.00
2022-12-10T08:55:16.750Z,415.00
2022-12-10T08:56:16.743Z,413.00
2022-12-10T08:57:16.733Z,416.00
2022-12-10T08:58:16.713Z,416.00
2022-12-10T08:59:16.701Z,411.00
2022-12-10T09:00:16.681Z,414.00
2022-12-10T09:01:16.739Z,411.00
2022-12-10T09:02:16.734Z,411.00
2022-12-10T09:03:16.643Z,410.00
2022-12-10T09:04:16.625Z,407.00
2022-12-10T09:05:16.621Z,411.00
2022-12-10T09:06:16.604Z,413.00
2022-12-10T09:07:16.592Z,411.00
2022-12-10T09:08:16.666Z,413.00
2022-12-10T09:09:16.571Z,417.00
2022-12-10T09:10:16.550Z,413.00
2022-12-10T09:11:16.550Z,412.00
2022-12-10T09:12:16.522Z,413.00
2022-12-10T09:13:16.518Z,410.00
2022-12-10T09:14:16.523Z,408.00
2022-12-10T09:15:16.493Z,412.00
2022-12-10T09:16:16.515Z,411.00
2022-12-10T09:17:16.471Z,411.00
2022-12-10T09:18:16.450Z,410.00
2022-12-10T09:19:20.053Z,409.00
2022-12-10T09:20:16.490Z,409.00
2022-12-10T09:21:16.411Z,411.00
2022-12-10T09:22:16.392Z,411.00
2022-12-10T09:23:16.381Z,414.00
2022-12-10T09:24:16.368Z,412.00
2022-12-10T09:25:16.359Z,411.00
2022-12-10T09:26:16.365Z,409.00
2022-12-10T09:27:16.336Z,411.00
2022-12-10T09:28:16.318Z,410.00
2022-12-10T09:29:16.309Z,410.00
2022-12-10T09:30:16.291Z,402.00
2022-12-10T09:31:20.155Z,406.00
2022-12-10T09:32:16.344Z,407.00
2022-12-10T09:33:16.259Z,410.00
2022-12-10T09:34:16.239Z,409.00
2022-12-10T09:35:16.247Z,408.00
2022-12-10T09:36:16.212Z,405.00
2022-12-10T09:37:16.208Z,407.00
2022-12-10T09:38:16.218Z,409.00
2022-12-10T09:39:16.178Z,409.00
2022-12-10T09:40:16.159Z,409.00
2022-12-10T09:41:16.148Z,415.00
2022-12-10T09:42:16.138Z,417.00
2022-12-10T09:43:19.089Z,412.00
2022-12-10T09:44:16.137Z,413.00
2022-12-10T09:45:16.099Z,412.00
2022-12-10T09:46:16.140Z,413.00
2022-12-10T09:47:16.077Z,420.00
2022-12-10T09:48:16.056Z,416.00
2022-12-10T09:49:16.054Z,417.00
2022-12-10T09:50:16.261Z,416.00
2022-12-10T09:51:16.017Z,415.00
2022-12-10T09:52:15.996Z,415.00
2022-12-10T09:53:15.998Z,418.00
2022-12-10T09:54:15.976Z,416.00
2022-12-10T09:55:15.966Z,412.00
2022-12-10T09:56:15.966Z,412.00
2022-12-10T09:57:15.947Z,414.00
2022-12-10T09:58:15.946Z,415.00
2022-12-10T09:59:15.917Z,416.00
2022-12-10T10:00:15.900Z,410.00
2022-12-10T10:01:15.922Z,412.00
2022-12-10T10:02:15.963Z,412.00
2022-12-10T10:03:15.865Z,414.00
2022-12-10T10:04:15.845Z,411.00
2022-12-10T10:05:15.837Z,413.00
2022-12-10T10:06:15.815Z,415.00
2022-12-10T10:07:15.818Z,416.00
2022-12-10T10:08:15.911Z,418.00
2022-12-10T10:09:15.786Z,418.00
2022-12-10T10:10:15.767Z,414.00
2022-12-10T10:11:15.756Z,412.00
2022-12-10T10:12:15.738Z,417.00
2022-12-10T10:13:15.736Z,415.00
2022-12-10T10:14:15.832Z,417.00
2022-12-10T10:15:15.704Z,417.00
2022-12-10T10:16:15.735Z,418.00
2022-12-10T10:17:15.686Z,414.00
2022-12-10T10:18:15.664Z,414.00
2022-12-10T10:19:15.655Z,415.00
2022-12-10T10:20:15.656Z,410.00
2022-12-10T10:21:15.633Z,409.00
2022-12-10T10:22:15.605Z,408.00
2022-12-10T10:23:15.604Z,406.00
2022-12-10T10:24:15.590Z,410.00
2022-12-10T10:25:15.588Z,409.00
2022-12-10T10:26:15.593Z,408.00
2022-12-10T10:27:15.553Z,410.00
2022-12-10T10:28:15.534Z,411.00
2022-12-10T10:29:15.523Z,410.00
2022-12-10T10:30:15.781Z,412.00
2022-12-10T10:31:15.530Z,409.00
2022-12-10T10:32:15.500Z,409.00
2022-12-10T10:33:15.475Z,410.00
2022-12-10T10:34:15.465Z,417.00
2022-12-10T10:35:15.453Z,419.00
2022-12-10T10:36:15.431Z,413.00
2022-12-10T10:37:15.423Z,414.00
2022-12-10T10:38:15.422Z,408.00
2022-12-10T10:39:15.400Z,410.00
2022-12-10T10:40:15.382Z,405.00
2022-12-10T10:41:15.372Z,411.00
2022-12-10T10:42:15.351Z,407.00
2022-12-10T10:43:15.352Z,413.00
2022-12-10T10:44:15.343Z,412.00
2022-12-10T10:45:15.323Z,410.00
2022-12-10T10:46:15.374Z,412.00
2022-12-10T10:47:15.292Z,411.00
2022-12-10T10:48:15.273Z,408.00
2022-12-10T10:49:15.271Z,410.00
2022-12-10T10:50:15.262Z,396.00
2022-12-10T10:51:15.242Z,407.00
2022-12-10T10:52:15.220Z,415.00
2022-12-10T10:53:15.219Z,411.00
2022-12-10T10:54:15.200Z,416.00
2022-12-10T10:55:15.192Z,417.00
2022-12-10T10:56:15.193Z,419.00
2022-12-10T10:57:15.161Z,419.00
2022-12-10T10:58:15.146Z,416.00
2022-12-10T10:59:15.139Z,416.00
2022-12-10T11:00:15.549Z,421.00
2022-12-10T11:01:15.169Z,415.00
2022-12-10T11:02:15.171Z,421.00
2022-12-10T11:03:15.082Z,414.00
2022-12-10T11:04:15.063Z,412.00
2022-12-10T11:05:15.060Z,413.00
2022-12-10T11:06:15.040Z,412.00
2022-12-10T11:07:15.031Z,412.00
2022-12-10T11:08:15.074Z,411.00
2022-12-10T11:09:15.002Z,413.00
2022-12-10T11:10:15.008Z,412.00
2022-12-10T11:11:14.979Z,413.00
2022-12-10T11:12:14.961Z,416.00
2022-12-10T11:13:14.950Z,417.00
2022-12-10T11:14:14.949Z,416.00
2022-12-10T11:15:14.927Z,426.00
2022-12-10T11:16:15.026Z,421.00
2022-12-10T11:17:14.900Z,418.00
2022-12-10T11:18:14.889Z,421.00
2022-12-10T11:19:14.870Z,408.00
2022-12-10T11:20:14.888Z,412.00
2022-12-10T11:21:14.848Z,417.00
2022-12-10T11:22:14.828Z,414.00
2022-12-10T11:23:14.821Z,415.00
2022-12-10T11:24:14.807Z,409.00
2022-12-10T11:25:14.798Z,410.00
2022-12-10T11:26:14.809Z,413.00
2022-12-10T11:27:14.774Z,415.00
2022-12-10T11:28:14.755Z,415.00
2022-12-10T11:29:14.745Z,414.00
2022-12-10T11:30:14.726Z,419.00
2022-12-10T11:31:14.740Z,421.00
2022-12-10T11:32:14.944Z,410.00
2022-12-10T11:33:14.690Z,418.00
2022-12-10T11:34:14.668Z,417.00
2022-12-10T11:35:14.660Z,417.00
2022-12-10T11:36:14.648Z,415.00
2022-12-10T11:37:14.641Z,422.00
2022-12-10T11:38:14.638Z,416.00
2022-12-10T11:39:14.607Z,413.00
2022-12-10T11:40:14.595Z,414.00
2022-12-10T11:41:14.578Z,420.00
2022-12-10T11:42:14.566Z,412.00
2022-12-10T11:43:14.566Z,410.00
2022-12-10T11:44:14.573Z,411.00
2022-12-10T11:45:14.527Z,412.00
2022-12-10T11:46:14.535Z,419.00
2022-12-10T11:47:14.506Z,419.00
2022-12-10T11:48:14.486Z,416.00
2022-12-10T11:49:14.477Z,417.00
2022-12-10T11:50:14.476Z,411.00
2022-12-10T11:51:14.457Z,422.00
2022-12-10T11:52:14.434Z,414.00
2022-12-10T11:53:14.426Z,416.00
2022-12-10T11:54:14.412Z,411.00
2022-12-10T11:55:15.923Z,410.00
2022-12-10T11:56:14.397Z,419.00
2022-12-10T11:57:14.376Z,419.00
2022-12-10T11:58:14.356Z,415.00
2022-12-10T11:59:14.354Z,418.00
2022-12-10T12:00:14.325Z,418.00
2022-12-10T12:01:14.325Z,415.00
2022-12-10T12:02:14.346Z,420.00
2022-12-10T12:03:14.344Z,416.00
2022-12-10T12:04:14.276Z,412.00
2022-12-10T12:05:14.274Z,414.00
2022-12-10T12:06:14.254Z,416.00
2022-12-10T12:07:14.234Z,416.00
2022-12-10T12:08:14.297Z,417.00
2022-12-10T12:09:14.221Z,419.00
2022-12-10T12:10:14.203Z,418.00
2022-12-10T12:11:14.193Z,416.00
2022-12-10T12:12:14.177Z,409.00
2022-12-10T12:13:14.172Z,407.00
2022-12-10T12:14:14.165Z,407.00
2022-12-10T12:15:14.135Z,411.00
2022-12-10T12:16:14.169Z,409.00
2022-12-10T12:17:14.114Z,400.00
2022-12-10T12:18:16.683Z,413.00
2022-12-10T12:19:15.125Z,419.00
2022-12-10T12:20:14.076Z,411.00
2022-12-10T12:21:14.050Z,406.00
2022-12-10T12:22:14.052Z,410.00
2022-12-10T12:23:14.024Z,414.00
2022-12-10T12:24:14.025Z,419.00
2022-12-10T12:25:14.033Z,422.00
2022-12-10T12:26:13.996Z,421.00
2022-12-10T12:27:13.975Z,419.00
2022-12-10T12:28:13.968Z,416.00